HGD weather

Hughenden Airport
Queensland, Australia

Public forecast

Using degrees Celsius for public forecast. Weather courtesy of forecast.io.

Current aviation weather report (METAR) for Hughenden Airport

Retrieved 2019/10/21 18:00 UTC (44 minutes ago):

YHUG 211800Z AUTO 06014KT 9999 // NCD 22/10 Q1016

Closest aviation forecast (TAF) to Hughenden Airport

Closest forecast is Townsville Airport, 171.2 nm (317.2 km) ENE. Retrieved 2019/10/21 18:00 UTC (44 minutes ago):

TAF YBTL 211705Z 2118/2218 12012KT 9999 SCT020 FM220100 07020KT 9999 FEW035 FM220900 10014KT 9999 FEW025 FM221700 19005KT 9999 FEW025 SCT030